createdAt,value
2018-06-30T00:00:23.487Z,96535.77
2018-06-30T00:02:52.885Z,96528.75
2018-06-30T00:05:22.274Z,96520.81
2018-06-30T00:07:51.647Z,96519.48
2018-06-30T00:10:29.084Z,96682.62
2018-06-30T00:12:59.459Z,96545.95
2018-06-30T00:15:28.935Z,96527.89
2018-06-30T00:17:58.376Z,96537.68
2018-06-30T00:20:27.693Z,96509.80
2018-06-30T00:22:56.779Z,96525.03
2018-06-30T00:25:26.067Z,96530.56
2018-06-30T00:27:56.816Z,96367.23
2018-06-30T00:30:26.561Z,96517.37
2018-06-30T00:32:56.546Z,96533.30
2018-06-30T00:35:25.613Z,96522.84
2018-06-30T00:37:54.916Z,96536.69
2018-06-30T00:40:24.243Z,96550.08
2018-06-30T00:42:53.568Z,96544.00
2018-06-30T00:45:22.877Z,96494.00
2018-06-30T00:47:52.209Z,96533.80
2018-06-30T00:50:21.517Z,96538.99
2018-06-30T00:52:50.826Z,96526.45
2018-06-30T00:55:20.139Z,96513.55
2018-06-30T00:57:49.211Z,96534.91
2018-06-30T01:00:18.528Z,96531.11
2018-06-30T01:02:47.596Z,96521.16
2018-06-30T01:05:16.914Z,96523.69
2018-06-30T01:07:46.217Z,96497.16
2018-06-30T01:10:15.530Z,96527.98
2018-06-30T01:12:44.862Z,96523.81
2018-06-30T01:15:14.159Z,96517.33
2018-06-30T01:17:43.580Z,96513.72
2018-06-30T01:20:12.888Z,96530.67
2018-06-30T01:22:42.176Z,96514.59
2018-06-30T01:25:11.488Z,96421.77
2018-06-30T01:27:40.799Z,96525.02
2018-06-30T01:30:11.484Z,96527.47
2018-06-30T01:32:41.472Z,96543.41
2018-06-30T01:35:11.201Z,96504.56
2018-06-30T01:37:40.996Z,96534.59
2018-06-30T01:40:10.064Z,96530.48
2018-06-30T01:42:39.404Z,96528.05
2018-06-30T01:45:08.620Z,96517.00
2018-06-30T01:47:37.964Z,96499.30
2018-06-30T01:50:07.276Z,96524.77
2018-06-30T01:52:36.589Z,96524.89
2018-06-30T01:55:05.679Z,96677.36
2018-06-30T01:57:34.748Z,96522.92
2018-06-30T02:00:04.533Z,96419.17
2018-06-30T02:02:33.836Z,96508.50
2018-06-30T02:05:03.164Z,96525.59
2018-06-30T02:07:32.467Z,96509.70
2018-06-30T02:10:01.800Z,96535.19
2018-06-30T02:12:30.892Z,96517.97
2018-06-30T02:14:59.962Z,96518.90
2018-06-30T02:17:29.286Z,96524.69
2018-06-30T02:19:58.623Z,96531.06
2018-06-30T02:22:27.956Z,96545.88
2018-06-30T02:24:57.268Z,96510.23
2018-06-30T02:27:26.585Z,96482.61
2018-06-30T02:29:55.897Z,96518.09
2018-06-30T02:32:25.210Z,96512.86
2018-06-30T02:34:54.521Z,96521.09
2018-06-30T02:37:23.844Z,96524.52
2018-06-30T02:39:53.160Z,96513.85
2018-06-30T02:42:22.485Z,96527.91
2018-06-30T02:44:51.817Z,96521.00
2018-06-30T02:47:21.150Z,96530.34
2018-06-30T02:49:50.555Z,96510.25
2018-06-30T02:52:19.895Z,96538.66
2018-06-30T02:54:49.009Z,96531.57
2018-06-30T02:57:18.365Z,96505.64
2018-06-30T02:59:47.724Z,96491.77
2018-06-30T03:02:17.072Z,96531.95
2018-06-30T03:04:46.478Z,96597.47
2018-06-30T03:07:15.826Z,96515.42
2018-06-30T03:09:45.187Z,96528.09
2018-06-30T03:12:14.289Z,96539.41
2018-06-30T03:14:43.394Z,96539.17
2018-06-30T03:17:12.750Z,96518.98
2018-06-30T03:19:42.114Z,96537.66
2018-06-30T03:22:11.466Z,96535.84
2018-06-30T03:24:40.823Z,96514.51
2018-06-30T03:27:10.151Z,96527.53
2018-06-30T03:29:39.502Z,96513.69
2018-06-30T03:32:08.833Z,96516.33
2018-06-30T03:34:38.191Z,96533.41
2018-06-30T03:37:07.549Z,96529.02
2018-06-30T03:39:36.911Z,96530.16
2018-06-30T03:42:06.253Z,96547.09
2018-06-30T03:44:35.624Z,96531.06
2018-06-30T03:47:04.981Z,96548.95
2018-06-30T03:49:34.355Z,96559.14
2018-06-30T03:52:03.713Z,96524.08
2018-06-30T03:54:33.085Z,96545.72
2018-06-30T03:57:02.438Z,96500.75
2018-06-30T03:59:31.785Z,96556.77
2018-06-30T04:02:01.145Z,96475.41
2018-06-30T04:04:30.482Z,96536.22
2018-06-30T04:06:59.810Z,96534.09
2018-06-30T04:09:28.891Z,96526.32
2018-06-30T04:11:58.001Z,96499.75
2018-06-30T04:14:27.344Z,96533.03
2018-06-30T04:16:56.691Z,96513.03
2018-06-30T04:19:26.065Z,96529.80
2018-06-30T04:21:55.435Z,96538.68
2018-06-30T04:24:24.802Z,96524.12
2018-06-30T04:26:53.887Z,96538.52
2018-06-30T04:29:22.980Z,96469.45
2018-06-30T04:31:52.080Z,96501.12
2018-06-30T04:34:21.173Z,96491.09
2018-06-30T04:36:50.259Z,96511.05
2018-06-30T04:39:19.620Z,96492.33
2018-06-30T04:41:48.991Z,96647.84
2018-06-30T04:44:18.339Z,96540.06
2018-06-30T04:46:47.713Z,96515.93
2018-06-30T04:49:17.053Z,96525.37
2018-06-30T04:51:46.405Z,96512.19
2018-06-30T04:54:15.777Z,96541.31
2018-06-30T04:56:44.865Z,96508.47
2018-06-30T04:59:14.204Z,96517.70
2018-06-30T05:01:43.550Z,96531.95
2018-06-30T05:04:12.892Z,96525.51
2018-06-30T05:06:42.233Z,96543.18
2018-06-30T05:09:11.569Z,96544.41
2018-06-30T05:11:40.672Z,96523.86
2018-06-30T05:14:09.777Z,96524.92
2018-06-30T05:16:38.855Z,96541.17
2018-06-30T05:19:07.944Z,96541.22
2018-06-30T05:21:37.356Z,96547.30
2018-06-30T05:24:06.455Z,96530.23
2018-06-30T05:26:35.805Z,96538.27
2018-06-30T05:29:05.197Z,96541.87
2018-06-30T05:31:34.545Z,96519.66
2018-06-30T05:34:03.932Z,96495.13
2018-06-30T05:36:33.282Z,96551.09
2018-06-30T05:39:02.633Z,96552.47
2018-06-30T05:41:31.980Z,96529.28
2018-06-30T05:44:01.340Z,96535.60
2018-06-30T05:46:30.692Z,96551.14
2018-06-30T05:49:00.038Z,96540.48
2018-06-30T05:51:29.384Z,96528.53
2018-06-30T05:53:58.721Z,96539.98
2018-06-30T05:56:28.076Z,96526.10
2018-06-30T05:58:57.152Z,96535.30
2018-06-30T06:01:26.505Z,96534.08
2018-06-30T06:03:55.850Z,96543.77
2018-06-30T06:06:25.181Z,96544.51
2018-06-30T06:08:54.522Z,96566.52
2018-06-30T06:11:23.870Z,96568.75
2018-06-30T06:13:53.497Z,96541.84
2018-06-30T06:16:22.853Z,96560.02
2018-06-30T06:18:52.212Z,96555.49
2018-06-30T06:21:21.553Z,96557.59
2018-06-30T06:23:50.884Z,96642.36
2018-06-30T06:26:19.974Z,96549.67
2018-06-30T06:28:49.073Z,96572.45
2018-06-30T06:31:18.416Z,96530.97
2018-06-30T06:33:47.755Z,96561.95
2018-06-30T06:36:17.159Z,96631.91
2018-06-30T06:38:46.502Z,96554.28
2018-06-30T06:41:15.859Z,96536.02
2018-06-30T06:43:45.196Z,96506.48
2018-06-30T06:46:14.516Z,96575.02
2018-06-30T06:48:44.097Z,96559.89
2018-06-30T06:51:13.436Z,96572.24
2018-06-30T06:53:42.776Z,96570.06
2018-06-30T06:56:11.864Z,96517.51
2018-06-30T06:58:41.225Z,96538.59
2018-06-30T07:01:10.560Z,96560.24
2018-06-30T07:03:39.914Z,96526.14
2018-06-30T07:06:09.272Z,96533.19
2018-06-30T07:08:38.624Z,96562.05
2018-06-30T07:11:07.965Z,96539.95
2018-06-30T07:13:37.301Z,96555.98
2018-06-30T07:16:06.700Z,96554.80
2018-06-30T07:18:36.083Z,96560.23
2018-06-30T07:21:05.168Z,96503.66
2018-06-30T07:23:34.513Z,96651.64
2018-06-30T07:26:03.877Z,96563.12
2018-06-30T07:28:32.967Z,96552.48
2018-06-30T07:31:02.200Z,96571.75
2018-06-30T07:33:31.404Z,96565.79
2018-06-30T07:36:00.774Z,96558.47
2018-06-30T07:38:29.885Z,96560.80
2018-06-30T07:40:59.220Z,96569.55
2018-06-30T07:43:28.577Z,96547.99
2018-06-30T07:45:57.661Z,96563.20
2018-06-30T07:48:27.005Z,96567.41
2018-06-30T07:50:56.349Z,96563.52
2018-06-30T07:53:25.699Z,96556.82
2018-06-30T07:55:55.054Z,96561.84
2018-06-30T07:58:24.411Z,96531.23
2018-06-30T08:00:53.752Z,96567.87
2018-06-30T08:03:23.097Z,96553.36
2018-06-30T08:05:52.478Z,96580.50
2018-06-30T08:08:21.584Z,96551.44
2018-06-30T08:10:50.930Z,96559.81
2018-06-30T08:13:20.291Z,96572.44
2018-06-30T08:15:49.664Z,96570.94
2018-06-30T08:18:19.021Z,96453.02
2018-06-30T08:20:48.374Z,96565.96
2018-06-30T08:23:17.722Z,96573.12
2018-06-30T08:25:47.090Z,96566.36
2018-06-30T08:28:16.430Z,96572.75
2018-06-30T08:30:45.802Z,96573.66
2018-06-30T08:33:15.168Z,96558.70
2018-06-30T08:35:44.540Z,96552.72
2018-06-30T08:38:13.912Z,96572.80
2018-06-30T08:40:43.273Z,96576.49
2018-06-30T08:43:12.597Z,96545.08
2018-06-30T08:45:41.939Z,96566.01
2018-06-30T08:48:11.281Z,96577.83
2018-06-30T08:50:40.617Z,96571.92
2018-06-30T08:53:09.969Z,96591.31
2018-06-30T08:55:39.393Z,96585.70
2018-06-30T08:58:09.314Z,96586.23
2018-06-30T09:00:38.439Z,96551.57
2018-06-30T09:03:07.772Z,96578.30
2018-06-30T09:05:37.124Z,96560.31
2018-06-30T09:08:06.477Z,96568.23
2018-06-30T09:10:35.869Z,96555.84
2018-06-30T09:13:05.183Z,96572.71
2018-06-30T09:15:34.531Z,96576.23
2018-06-30T09:18:03.868Z,96553.09
2018-06-30T09:20:33.223Z,96544.23
2018-06-30T09:23:02.593Z,96558.13
2018-06-30T09:25:31.946Z,96523.00
2018-06-30T09:28:01.288Z,96569.52
2018-06-30T09:30:30.653Z,96561.80
2018-06-30T09:32:59.995Z,96563.52
2018-06-30T09:35:29.342Z,96568.80
2018-06-30T09:37:58.701Z,96569.44
2018-06-30T09:40:28.082Z,96583.94
2018-06-30T09:42:57.418Z,96571.12
2018-06-30T09:45:26.517Z,96541.08
2018-06-30T09:47:55.608Z,96573.38
2018-06-30T09:50:24.970Z,96560.92
2018-06-30T09:52:54.348Z,96606.16
2018-06-30T09:55:23.696Z,96562.13
2018-06-30T09:57:53.046Z,96575.62
2018-06-30T10:00:27.687Z,96564.63
2018-06-30T10:02:57.022Z,96599.71
2018-06-30T10:05:26.377Z,96547.80
2018-06-30T10:07:55.762Z,96559.37
2018-06-30T10:10:25.142Z,96609.98
2018-06-30T10:12:54.246Z,96479.28
2018-06-30T10:15:23.344Z,96646.41
2018-06-30T10:17:52.709Z,96559.19
2018-06-30T10:20:22.056Z,96554.33
2018-06-30T10:22:51.414Z,96553.69
2018-06-30T10:25:20.822Z,96529.20
2018-06-30T10:27:50.296Z,96569.81
2018-06-30T10:30:19.645Z,96541.25
2018-06-30T10:32:48.739Z,96543.13
2018-06-30T10:35:18.073Z,96555.81
2018-06-30T10:37:47.429Z,96509.80
2018-06-30T10:40:16.534Z,96538.46
2018-06-30T10:42:45.635Z,96518.92
2018-06-30T10:45:14.724Z,96539.48
2018-06-30T10:47:44.077Z,96549.00
2018-06-30T10:50:13.425Z,96525.54
2018-06-30T10:52:42.524Z,96561.23
2018-06-30T10:55:11.917Z,96532.55
2018-06-30T10:57:41.039Z,96533.05
2018-06-30T11:00:10.657Z,96527.41
2018-06-30T11:02:40.153Z,96521.50
2018-06-30T11:05:11.085Z,96525.63
2018-06-30T11:07:40.493Z,96497.78
2018-06-30T11:10:10.384Z,96519.08
2018-06-30T11:12:39.580Z,96521.26
2018-06-30T11:15:08.927Z,96539.38
2018-06-30T11:17:38.322Z,96550.83
2018-06-30T11:20:08.874Z,96556.05
2018-06-30T11:22:38.217Z,96589.03
2018-06-30T11:25:07.539Z,96574.70
2018-06-30T11:27:36.933Z,96562.82
2018-06-30T11:30:06.528Z,96574.19
2018-06-30T11:32:36.022Z,96474.55
2018-06-30T11:35:05.463Z,96517.27
2018-06-30T11:37:34.833Z,96579.09
2018-06-30T11:40:03.926Z,96699.28
2018-06-30T11:42:33.285Z,96460.23
2018-06-30T11:45:02.625Z,96575.55
2018-06-30T11:47:31.712Z,96517.22
2018-06-30T11:50:01.061Z,96454.30
2018-06-30T11:52:30.417Z,96562.59
2018-06-30T11:54:59.777Z,96621.09
2018-06-30T11:57:29.125Z,96434.08
2018-06-30T11:59:58.483Z,96485.39
2018-06-30T12:02:27.842Z,96521.08
2018-06-30T12:04:57.186Z,96490.52
2018-06-30T12:07:26.540Z,96519.99
2018-06-30T12:09:56.212Z,96533.20
2018-06-30T12:12:25.561Z,96470.00
2018-06-30T12:14:54.925Z,96465.09
2018-06-30T12:17:24.288Z,96291.63
2018-06-30T12:19:53.685Z,96456.20
2018-06-30T12:22:23.020Z,96450.81
2018-06-30T12:24:52.373Z,96514.05
2018-06-30T12:27:21.711Z,96477.01
2018-06-30T12:29:51.059Z,96488.35
2018-06-30T12:32:20.485Z,96467.00
2018-06-30T12:34:49.776Z,96460.55
2018-06-30T12:37:19.113Z,96529.42
2018-06-30T12:39:48.472Z,96501.54
2018-06-30T12:42:17.808Z,96514.25
2018-06-30T12:44:47.157Z,96515.33
2018-06-30T12:47:16.271Z,96493.98
2018-06-30T12:49:45.670Z,96508.79
2018-06-30T12:52:14.973Z,96481.64
2018-06-30T12:54:44.406Z,96539.55
2018-06-30T12:57:13.683Z,96496.88
2018-06-30T12:59:43.031Z,96487.68
2018-06-30T13:02:12.509Z,96544.54
2018-06-30T13:04:41.841Z,96483.11
2018-06-30T13:07:11.180Z,96466.46
2018-06-30T13:09:40.515Z,96489.95
2018-06-30T13:12:09.846Z,96479.65
2018-06-30T13:14:39.220Z,96466.97
2018-06-30T13:17:08.577Z,96507.93
2018-06-30T13:19:37.979Z,96470.20
2018-06-30T13:22:07.425Z,96551.34
2018-06-30T13:24:36.764Z,96527.81
2018-06-30T13:27:05.868Z,96485.06
2018-06-30T13:29:35.017Z,96520.56
2018-06-30T13:32:04.367Z,96501.69
2018-06-30T13:34:33.802Z,96554.25
2018-06-30T13:37:03.066Z,96482.36
2018-06-30T13:39:32.183Z,96459.70
2018-06-30T13:42:01.524Z,96500.36
2018-06-30T13:44:30.860Z,96549.33
2018-06-30T13:46:59.968Z,96467.30
2018-06-30T13:49:29.321Z,96474.36
2018-06-30T13:51:58.681Z,96502.80
2018-06-30T13:54:28.031Z,96494.39
2018-06-30T13:56:57.425Z,96565.08
2018-06-30T13:59:26.768Z,96428.45
2018-06-30T14:01:56.119Z,96438.45
2018-06-30T14:04:25.458Z,96486.69
2018-06-30T14:06:54.841Z,96571.87
2018-06-30T14:09:24.216Z,96465.99
2018-06-30T14:11:53.568Z,96521.30
2018-06-30T14:14:22.904Z,96479.39
2018-06-30T14:16:52.295Z,96496.13
2018-06-30T14:19:21.702Z,96475.19
2018-06-30T14:21:51.053Z,96459.70
2018-06-30T14:24:20.412Z,96461.09
2018-06-30T14:26:49.777Z,96474.92
2018-06-30T14:29:18.856Z,96439.41
2018-06-30T14:31:48.213Z,96452.06
2018-06-30T14:34:17.565Z,96452.50
2018-06-30T14:36:46.956Z,96439.50
2018-06-30T14:39:16.316Z,96464.36
2018-06-30T14:41:45.705Z,96458.55
2018-06-30T14:44:15.034Z,96462.81
2018-06-30T14:46:44.387Z,96460.52
2018-06-30T14:49:13.474Z,96453.23
2018-06-30T14:51:42.586Z,96327.67
2018-06-30T14:54:11.948Z,96473.73
2018-06-30T14:56:41.321Z,96462.58
2018-06-30T14:59:10.665Z,96453.41
2018-06-30T15:01:40.023Z,96241.21
2018-06-30T15:04:09.381Z,96475.17
2018-06-30T15:06:38.574Z,96482.11
2018-06-30T15:09:10.885Z,96502.39
2018-06-30T15:11:40.467Z,96490.05
2018-06-30T15:14:09.817Z,96460.17
2018-06-30T15:16:39.377Z,96493.41
2018-06-30T15:19:09.287Z,96452.50
2018-06-30T15:21:38.653Z,96487.22
2018-06-30T15:24:09.622Z,96472.98
2018-06-30T15:26:38.992Z,96465.05
2018-06-30T15:29:08.349Z,96466.59
2018-06-30T15:31:37.723Z,96473.84
2018-06-30T15:34:07.088Z,96440.68
2018-06-30T15:36:36.521Z,96469.79
2018-06-30T15:39:07.961Z,96471.64
2018-06-30T15:41:37.064Z,96471.01
2018-06-30T15:44:06.395Z,96461.98
2018-06-30T15:46:35.765Z,96453.91
2018-06-30T15:49:05.045Z,96498.50
2018-06-30T15:51:34.383Z,96441.64
2018-06-30T15:54:03.871Z,96474.59
2018-06-30T15:56:33.217Z,96457.87
2018-06-30T15:59:02.586Z,96462.20
2018-06-30T16:01:31.934Z,96456.28
2018-06-30T16:04:01.285Z,96458.47
2018-06-30T16:06:31.092Z,96500.16
2018-06-30T16:09:00.463Z,96503.84
2018-06-30T16:11:29.788Z,96500.31
2018-06-30T16:13:58.896Z,96472.66
2018-06-30T16:16:28.268Z,96470.77
2018-06-30T16:18:57.622Z,96476.70
2018-06-30T16:21:26.965Z,96460.33
2018-06-30T16:23:56.444Z,96472.75
2018-06-30T16:26:25.796Z,96506.18
2018-06-30T16:28:55.301Z,96572.91
2018-06-30T16:31:24.612Z,96446.48
2018-06-30T16:33:53.703Z,96475.48
2018-06-30T16:36:23.164Z,96502.54
2018-06-30T16:38:52.509Z,96506.08
2018-06-30T16:41:21.838Z,96504.45
2018-06-30T16:43:51.249Z,96471.96
2018-06-30T16:46:20.582Z,96514.16
2018-06-30T16:48:49.924Z,96470.93
2018-06-30T16:51:19.277Z,96490.98
2018-06-30T16:53:48.636Z,96443.13
2018-06-30T16:56:18.024Z,96492.12
2018-06-30T16:58:47.465Z,96487.53
2018-06-30T17:01:16.733Z,96430.54
2018-06-30T17:03:46.108Z,96502.69
2018-06-30T17:06:15.460Z,96431.09
2018-06-30T17:08:44.798Z,96433.77
2018-06-30T17:11:14.128Z,96494.59
2018-06-30T17:13:43.464Z,96497.01
2018-06-30T17:16:12.806Z,96464.30
2018-06-30T17:18:42.155Z,96374.36
2018-06-30T17:21:11.545Z,96493.22
2018-06-30T17:23:40.900Z,96488.92
2018-06-30T17:26:11.100Z,96465.95
2018-06-30T17:28:40.480Z,96511.60
2018-06-30T17:31:09.817Z,96497.56
2018-06-30T17:33:39.162Z,96462.69
2018-06-30T17:36:09.520Z,96453.50
2018-06-30T17:38:38.841Z,96413.80
2018-06-30T17:41:08.197Z,96464.27
2018-06-30T17:43:37.533Z,96427.30
2018-06-30T17:46:07.227Z,96465.88
2018-06-30T17:48:36.580Z,96536.83
2018-06-30T17:51:06.041Z,96516.52
2018-06-30T17:53:35.408Z,96532.45
2018-06-30T17:56:04.915Z,96481.11
2018-06-30T17:58:34.260Z,96478.89
2018-06-30T18:01:03.604Z,96485.05
2018-06-30T18:03:33.054Z,96477.50
2018-06-30T18:06:02.389Z,96488.26
2018-06-30T18:08:31.724Z,96493.35
2018-06-30T18:11:01.055Z,96490.17
2018-06-30T18:13:30.384Z,96482.34
2018-06-30T18:15:59.521Z,96480.06
2018-06-30T18:18:28.824Z,96475.73
2018-06-30T18:20:58.169Z,96466.58
2018-06-30T18:23:27.483Z,96469.17
2018-06-30T18:25:56.567Z,96483.41
2018-06-30T18:28:25.962Z,96466.15
2018-06-30T18:30:55.306Z,96455.63
2018-06-30T18:33:24.623Z,96445.86
2018-06-30T18:35:53.962Z,96456.82
2018-06-30T18:38:23.283Z,96414.95
2018-06-30T18:40:52.378Z,96480.53
2018-06-30T18:43:21.781Z,96480.94
2018-06-30T18:45:50.877Z,96490.59
2018-06-30T18:48:20.198Z,96526.55
2018-06-30T18:50:49.616Z,96499.69
2018-06-30T18:53:18.944Z,96492.50
2018-06-30T18:55:48.284Z,96497.66
2018-06-30T18:58:17.399Z,96493.62
2018-06-30T19:00:46.714Z,96486.61
2018-06-30T19:03:16.127Z,96481.41
2018-06-30T19:05:45.385Z,96499.98
2018-06-30T19:08:14.459Z,96478.77
2018-06-30T19:10:43.863Z,96463.45
2018-06-30T19:13:13.193Z,96579.22
2018-06-30T19:15:42.519Z,96506.07
2018-06-30T19:18:11.869Z,96490.86
2018-06-30T19:20:41.224Z,96278.84
2018-06-30T19:23:10.583Z,96497.48
2018-06-30T19:25:39.656Z,96519.45
2018-06-30T19:28:08.978Z,96474.84
2018-06-30T19:30:38.076Z,96600.95
2018-06-30T19:33:07.430Z,96513.98
2018-06-30T19:35:36.759Z,96514.12
2018-06-30T19:38:06.090Z,96502.23
2018-06-30T19:40:35.416Z,96519.59
2018-06-30T19:43:04.748Z,96531.05
2018-06-30T19:45:34.076Z,96563.52
2018-06-30T19:48:03.159Z,96520.16
2018-06-30T19:50:32.501Z,96528.91
2018-06-30T19:53:01.906Z,96553.28
2018-06-30T19:55:31.188Z,96498.94
2018-06-30T19:58:00.251Z,96633.48
2018-06-30T20:00:29.574Z,96634.42
2018-06-30T20:02:58.899Z,96554.95
2018-06-30T20:05:28.243Z,96564.05
2018-06-30T20:07:57.565Z,96563.70
2018-06-30T20:10:26.905Z,96558.17
2018-06-30T20:12:56.248Z,96561.17
2018-06-30T20:15:25.568Z,96590.98
2018-06-30T20:17:57.599Z,96562.95
2018-06-30T20:20:26.937Z,96576.05
2018-06-30T20:22:56.508Z,96561.61
2018-06-30T20:25:25.613Z,96579.16
2018-06-30T20:27:54.944Z,96629.68
2018-06-30T20:30:24.282Z,96587.53
2018-06-30T20:32:53.606Z,96551.99
2018-06-30T20:35:22.935Z,96478.10
2018-06-30T20:37:52.021Z,96555.47
2018-06-30T20:40:21.349Z,96561.34
2018-06-30T20:42:50.711Z,96591.70
2018-06-30T20:45:20.102Z,96590.23
2018-06-30T20:47:49.481Z,96608.84
2018-06-30T20:50:18.697Z,96604.30
2018-06-30T20:52:48.029Z,96586.55
2018-06-30T20:55:17.349Z,96572.45
2018-06-30T20:57:46.680Z,96615.33
2018-06-30T21:00:16.005Z,96599.44
2018-06-30T21:02:45.335Z,96601.30
2018-06-30T21:05:14.684Z,96588.16
2018-06-30T21:07:44.017Z,96610.75
2018-06-30T21:10:13.340Z,96602.69
2018-06-30T21:12:42.420Z,96699.05
2018-06-30T21:15:11.728Z,96612.50
2018-06-30T21:17:40.970Z,96606.30
2018-06-30T21:20:10.252Z,96617.23
2018-06-30T21:22:39.597Z,96636.23
2018-06-30T21:25:08.912Z,96606.70
2018-06-30T21:27:38.237Z,96614.31
2018-06-30T21:30:08.555Z,96628.27
2018-06-30T21:32:37.885Z,96654.34
2018-06-30T21:35:07.220Z,96655.67
2018-06-30T21:37:36.535Z,96669.07
2018-06-30T21:40:05.865Z,96643.98
2018-06-30T21:42:35.201Z,96667.12
2018-06-30T21:45:04.525Z,96658.11
2018-06-30T21:47:33.845Z,96653.05
2018-06-30T21:50:03.167Z,96686.96
2018-06-30T21:52:32.489Z,96655.45
2018-06-30T21:55:01.821Z,96668.40
2018-06-30T21:57:31.136Z,96657.98
2018-06-30T22:00:00.540Z,96676.67
2018-06-30T22:02:29.853Z,96662.92
2018-06-30T22:04:59.173Z,96681.09
2018-06-30T22:07:28.492Z,96661.45
2018-06-30T22:09:57.820Z,96674.66
2018-06-30T22:12:27.134Z,96665.38
2018-06-30T22:14:56.570Z,96690.18
2018-06-30T22:17:25.639Z,96666.36
2018-06-30T22:19:55.073Z,96604.86
2018-06-30T22:22:24.381Z,96680.75
2018-06-30T22:24:53.428Z,96680.58
2018-06-30T22:27:22.744Z,96709.44
2018-06-30T22:29:52.076Z,96691.42
2018-06-30T22:32:21.396Z,96699.84
2018-06-30T22:34:50.742Z,96703.43
2018-06-30T22:37:20.053Z,96677.64
2018-06-30T22:40:00.228Z,96698.03
2018-06-30T22:42:29.556Z,96675.41
2018-06-30T22:44:58.883Z,96668.44
2018-06-30T22:47:28.204Z,96689.22
2018-06-30T22:49:57.521Z,96665.22
2018-06-30T22:52:26.848Z,96698.17
2018-06-30T22:54:56.171Z,96682.52
2018-06-30T22:57:25.486Z,96681.37
2018-06-30T22:59:54.815Z,96700.09
2018-06-30T23:02:23.891Z,96675.01
2018-06-30T23:04:53.255Z,96682.72
2018-06-30T23:07:22.572Z,96706.27
2018-06-30T23:09:52.545Z,96690.02
2018-06-30T23:12:21.852Z,96699.31
2018-06-30T23:14:51.255Z,96687.48
2018-06-30T23:17:20.598Z,96692.72
2018-06-30T23:19:49.920Z,96677.23
2018-06-30T23:23:28.323Z,96779.24
2018-06-30T23:25:57.589Z,96686.83
2018-06-30T23:28:26.924Z,96675.41
2018-06-30T23:30:56.257Z,96699.44
2018-06-30T23:33:25.594Z,96669.46
2018-06-30T23:35:54.927Z,96710.70
2018-06-30T23:38:24.238Z,96683.72
2018-06-30T23:40:53.565Z,96693.20
2018-06-30T23:43:22.879Z,96608.86
2018-06-30T23:45:52.209Z,96717.56
2018-06-30T23:48:21.537Z,96712.62
2018-06-30T23:50:50.865Z,96641.45
2018-06-30T23:53:20.183Z,96700.17
2018-06-30T23:55:49.545Z,96703.05
2018-06-30T23:58:18.848Z,96676.99
